sensor_id;sensor_type;location;lat;lon;timestamp;pressure;altitude;pressure_sealevel;temperature
20733;BMP180;10527;52.124;5.196;2024-03-08T00:00:13;101762.00;;;15.70
20733;BMP180;10527;52.124;5.196;2024-03-08T00:02:47;101759.00;;;15.70
20733;BMP180;10527;52.124;5.196;2024-03-08T00:05:15;101760.00;;;15.70
20733;BMP180;10527;52.124;5.196;2024-03-08T00:07:43;101754.00;;;15.70
20733;BMP180;10527;52.124;5.196;2024-03-08T00:10:12;101756.00;;;15.70
20733;BMP180;10527;52.124;5.196;2024-03-08T00:12:43;101751.00;;;15.70
20733;BMP180;10527;52.124;5.196;2024-03-08T00:15:14;101747.00;;;15.70
20733;BMP180;10527;52.124;5.196;2024-03-08T00:17:45;101744.00;;;15.60
20733;BMP180;10527;52.124;5.196;2024-03-08T00:20:15;101740.00;;;15.60
20733;BMP180;10527;52.124;5.196;2024-03-08T00:22:46;101747.00;;;15.60
20733;BMP180;10527;52.124;5.196;2024-03-08T00:25:14;101739.00;;;15.60
20733;BMP180;10527;52.124;5.196;2024-03-08T00:27:42;101738.00;;;15.60
20733;BMP180;10527;52.124;5.196;2024-03-08T00:30:10;101738.00;;;15.60
20733;BMP180;10527;52.124;5.196;2024-03-08T00:32:41;101730.00;;;15.50
20733;BMP180;10527;52.124;5.196;2024-03-08T00:35:08;101732.00;;;15.50
20733;BMP180;10527;52.124;5.196;2024-03-08T00:37:36;101719.00;;;15.50
20733;BMP180;10527;52.124;5.196;2024-03-08T00:40:04;101728.00;;;15.50
20733;BMP180;10527;52.124;5.196;2024-03-08T00:42:37;101720.00;;;15.40
20733;BMP180;10527;52.124;5.196;2024-03-08T00:45:05;101724.00;;;15.40
20733;BMP180;10527;52.124;5.196;2024-03-08T00:47:33;101722.00;;;15.40
20733;BMP180;10527;52.124;5.196;2024-03-08T00:50:00;101720.00;;;15.30
20733;BMP180;10527;52.124;5.196;2024-03-08T00:52:31;101721.00;;;15.30
20733;BMP180;10527;52.124;5.196;2024-03-08T00:54:58;101715.00;;;15.30
20733;BMP180;10527;52.124;5.196;2024-03-08T00:57:26;101710.00;;;15.30
20733;BMP180;10527;52.124;5.196;2024-03-08T00:59:55;101702.00;;;15.30
20733;BMP180;10527;52.124;5.196;2024-03-08T01:02:23;101702.00;;;15.20
20733;BMP180;10527;52.124;5.196;2024-03-08T01:04:51;101702.00;;;15.20
20733;BMP180;10527;52.124;5.196;2024-03-08T01:07:19;101699.00;;;15.20
20733;BMP180;10527;52.124;5.196;2024-03-08T01:09:47;101691.00;;;15.20
20733;BMP180;10527;52.124;5.196;2024-03-08T01:12:14;101687.00;;;15.20
20733;BMP180;10527;52.124;5.196;2024-03-08T01:14:42;101686.00;;;15.10
20733;BMP180;10527;52.124;5.196;2024-03-08T01:17:09;101684.00;;;15.10
20733;BMP180;10527;52.124;5.196;2024-03-08T01:19:37;101676.00;;;15.10
20733;BMP180;10527;52.124;5.196;2024-03-08T01:22:04;101670.00;;;15.10
20733;BMP180;10527;52.124;5.196;2024-03-08T01:24:32;101668.00;;;15.10
20733;BMP180;10527;52.124;5.196;2024-03-08T01:26:59;101667.00;;;15.10
20733;BMP180;10527;52.124;5.196;2024-03-08T01:29:27;101657.00;;;15.00
20733;BMP180;10527;52.124;5.196;2024-03-08T01:31:57;101651.00;;;15.00
20733;BMP180;10527;52.124;5.196;2024-03-08T01:34:25;101660.00;;;15.00
20733;BMP180;10527;52.124;5.196;2024-03-08T01:36:52;101652.00;;;15.00
20733;BMP180;10527;52.124;5.196;2024-03-08T01:39:20;101646.00;;;15.00
20733;BMP180;10527;52.124;5.196;2024-03-08T01:41:49;101651.00;;;15.00
20733;BMP180;10527;52.124;5.196;2024-03-08T01:44:18;101642.00;;;15.00
20733;BMP180;10527;52.124;5.196;2024-03-08T01:46:46;101644.00;;;14.90
20733;BMP180;10527;52.124;5.196;2024-03-08T01:49:14;101637.00;;;14.90
20733;BMP180;10527;52.124;5.196;2024-03-08T01:51:42;101629.00;;;14.90
20733;BMP180;10527;52.124;5.196;2024-03-08T01:54:10;101635.00;;;14.90
20733;BMP180;10527;52.124;5.196;2024-03-08T01:56:40;101636.00;;;14.90
20733;BMP180;10527;52.124;5.196;2024-03-08T01:59:08;101632.00;;;14.80
20733;BMP180;10527;52.124;5.196;2024-03-08T02:01:36;101640.00;;;14.80
20733;BMP180;10527;52.124;5.196;2024-03-08T02:04:04;101638.00;;;14.80
20733;BMP180;10527;52.124;5.196;2024-03-08T02:06:34;101631.00;;;14.80
20733;BMP180;10527;52.124;5.196;2024-03-08T02:09:02;101633.00;;;14.80
20733;BMP180;10527;52.124;5.196;2024-03-08T02:11:34;101624.00;;;14.80
20733;BMP180;10527;52.124;5.196;2024-03-08T02:14:04;101623.00;;;14.80
20733;BMP180;10527;52.124;5.196;2024-03-08T02:16:34;101625.00;;;14.70
20733;BMP180;10527;52.124;5.196;2024-03-08T02:19:01;101623.00;;;14.70
20733;BMP180;10527;52.124;5.196;2024-03-08T02:21:29;101613.00;;;14.70
20733;BMP180;10527;52.124;5.196;2024-03-08T02:23:56;101603.00;;;14.60
20733;BMP180;10527;52.124;5.196;2024-03-08T02:26:24;101608.00;;;14.60
20733;BMP180;10527;52.124;5.196;2024-03-08T02:28:51;101602.00;;;14.60
20733;BMP180;10527;52.124;5.196;2024-03-08T02:31:19;101607.00;;;14.60
20733;BMP180;10527;52.124;5.196;2024-03-08T02:33:46;101595.00;;;14.50
20733;BMP180;10527;52.124;5.196;2024-03-08T02:36:14;101600.00;;;14.50
20733;BMP180;10527;52.124;5.196;2024-03-08T02:38:43;101582.00;;;14.50
20733;BMP180;10527;52.124;5.196;2024-03-08T02:41:11;101587.00;;;14.50
20733;BMP180;10527;52.124;5.196;2024-03-08T02:43:40;101578.00;;;14.50
20733;BMP180;10527;52.124;5.196;2024-03-08T02:46:08;101574.00;;;14.50
20733;BMP180;10527;52.124;5.196;2024-03-08T02:48:35;101576.00;;;14.40
20733;BMP180;10527;52.124;5.196;2024-03-08T02:51:03;101567.00;;;14.40
20733;BMP180;10527;52.124;5.196;2024-03-08T02:53:30;101568.00;;;14.40
20733;BMP180;10527;52.124;5.196;2024-03-08T02:55:58;101565.00;;;14.30
20733;BMP180;10527;52.124;5.196;2024-03-08T02:58:26;101560.00;;;14.30
20733;BMP180;10527;52.124;5.196;2024-03-08T03:00:53;101564.00;;;14.30
20733;BMP180;10527;52.124;5.196;2024-03-08T03:03:23;101553.00;;;14.30
20733;BMP180;10527;52.124;5.196;2024-03-08T03:05:50;101556.00;;;14.20
20733;BMP180;10527;52.124;5.196;2024-03-08T03:08:17;101550.00;;;14.20
20733;BMP180;10527;52.124;5.196;2024-03-08T03:10:45;101554.00;;;14.20
20733;BMP180;10527;52.124;5.196;2024-03-08T03:13:13;101548.00;;;14.20
20733;BMP180;10527;52.124;5.196;2024-03-08T03:15:41;101550.00;;;14.20
20733;BMP180;10527;52.124;5.196;2024-03-08T03:18:09;101541.00;;;14.20
20733;BMP180;10527;52.124;5.196;2024-03-08T03:20:37;101544.00;;;14.20
20733;BMP180;10527;52.124;5.196;2024-03-08T03:23:11;101548.00;;;14.20
20733;BMP180;10527;52.124;5.196;2024-03-08T03:25:43;101546.00;;;14.10
20733;BMP180;10527;52.124;5.196;2024-03-08T03:28:11;101546.00;;;14.10
20733;BMP180;10527;52.124;5.196;2024-03-08T03:30:42;101535.00;;;14.10
20733;BMP180;10527;52.124;5.196;2024-03-08T03:33:11;101530.00;;;14.10
20733;BMP180;10527;52.124;5.196;2024-03-08T03:35:40;101527.00;;;14.10
20733;BMP180;10527;52.124;5.196;2024-03-08T03:38:09;101525.00;;;14.00
20733;BMP180;10527;52.124;5.196;2024-03-08T03:40:39;101535.00;;;14.00
20733;BMP180;10527;52.124;5.196;2024-03-08T03:43:09;101525.00;;;13.90
20733;BMP180;10527;52.124;5.196;2024-03-08T03:45:39;101524.00;;;13.90
20733;BMP180;10527;52.124;5.196;2024-03-08T03:48:09;101522.00;;;13.90
20733;BMP180;10527;52.124;5.196;2024-03-08T03:50:38;101518.00;;;13.90
20733;BMP180;10527;52.124;5.196;2024-03-08T03:53:07;101520.00;;;13.90
20733;BMP180;10527;52.124;5.196;2024-03-08T03:55:37;101518.00;;;13.90
20733;BMP180;10527;52.124;5.196;2024-03-08T03:58:08;101521.00;;;13.90
20733;BMP180;10527;52.124;5.196;2024-03-08T04:00:38;101514.00;;;13.90
20733;BMP180;10527;52.124;5.196;2024-03-08T04:03:06;101514.00;;;13.90
20733;BMP180;10527;52.124;5.196;2024-03-08T04:05:35;101518.00;;;13.80
20733;BMP180;10527;52.124;5.196;2024-03-08T04:08:03;101511.00;;;13.80
20733;BMP180;10527;52.124;5.196;2024-03-08T04:10:30;101507.00;;;13.80
20733;BMP180;10527;52.124;5.196;2024-03-08T04:12:58;101507.00;;;13.80
20733;BMP180;10527;52.124;5.196;2024-03-08T04:15:25;101504.00;;;13.80
20733;BMP180;10527;52.124;5.196;2024-03-08T04:17:53;101502.00;;;13.80
20733;BMP180;10527;52.124;5.196;2024-03-08T04:20:21;101496.00;;;13.80
20733;BMP180;10527;52.124;5.196;2024-03-08T04:22:49;101503.00;;;13.80
20733;BMP180;10527;52.124;5.196;2024-03-08T04:25:17;101494.00;;;13.80
20733;BMP180;10527;52.124;5.196;2024-03-08T04:27:45;101494.00;;;13.70
20733;BMP180;10527;52.124;5.196;2024-03-08T04:30:13;101494.00;;;13.70
20733;BMP180;10527;52.124;5.196;2024-03-08T04:32:40;101494.00;;;13.70
20733;BMP180;10527;52.124;5.196;2024-03-08T04:35:11;101492.00;;;13.70
20733;BMP180;10527;52.124;5.196;2024-03-08T04:37:40;101495.00;;;13.70
20733;BMP180;10527;52.124;5.196;2024-03-08T04:40:08;101493.00;;;13.70
20733;BMP180;10527;52.124;5.196;2024-03-08T04:42:37;101495.00;;;13.70
20733;BMP180;10527;52.124;5.196;2024-03-08T04:45:05;101486.00;;;13.60
20733;BMP180;10527;52.124;5.196;2024-03-08T04:47:35;101484.00;;;13.60
20733;BMP180;10527;52.124;5.196;2024-03-08T04:50:04;101487.00;;;13.60
20733;BMP180;10527;52.124;5.196;2024-03-08T04:52:32;101484.00;;;13.60
20733;BMP180;10527;52.124;5.196;2024-03-08T04:55:00;101472.00;;;13.60
20733;BMP180;10527;52.124;5.196;2024-03-08T04:57:27;101476.00;;;13.60
20733;BMP180;10527;52.124;5.196;2024-03-08T04:59:57;101480.00;;;13.60
20733;BMP180;10527;52.124;5.196;2024-03-08T05:02:27;101481.00;;;13.50
20733;BMP180;10527;52.124;5.196;2024-03-08T05:04:55;101476.00;;;13.50
20733;BMP180;10527;52.124;5.196;2024-03-08T05:07:22;101482.00;;;13.50
20733;BMP180;10527;52.124;5.196;2024-03-08T05:09:49;101474.00;;;13.50
20733;BMP180;10527;52.124;5.196;2024-03-08T05:12:19;101472.00;;;13.40
20733;BMP180;10527;52.124;5.196;2024-03-08T05:14:47;101469.00;;;13.40
20733;BMP180;10527;52.124;5.196;2024-03-08T05:17:17;101464.00;;;13.40
20733;BMP180;10527;52.124;5.196;2024-03-08T05:19:45;101465.00;;;13.40
20733;BMP180;10527;52.124;5.196;2024-03-08T05:22:12;101459.00;;;13.40
20733;BMP180;10527;52.124;5.196;2024-03-08T05:24:41;101462.00;;;13.40
20733;BMP180;10527;52.124;5.196;2024-03-08T05:27:09;101460.00;;;13.30
20733;BMP180;10527;52.124;5.196;2024-03-08T05:29:36;101458.00;;;13.30
20733;BMP180;10527;52.124;5.196;2024-03-08T05:32:05;101454.00;;;13.30
20733;BMP180;10527;52.124;5.196;2024-03-08T05:34:32;101461.00;;;13.30
20733;BMP180;10527;52.124;5.196;2024-03-08T05:37:00;101454.00;;;13.30
20733;BMP180;10527;52.124;5.196;2024-03-08T05:39:27;101450.00;;;13.30
20733;BMP180;10527;52.124;5.196;2024-03-08T05:41:55;101455.00;;;13.20
20733;BMP180;10527;52.124;5.196;2024-03-08T05:44:23;101453.00;;;13.20
20733;BMP180;10527;52.124;5.196;2024-03-08T05:46:50;101450.00;;;13.20
20733;BMP180;10527;52.124;5.196;2024-03-08T05:49:18;101445.00;;;13.20
20733;BMP180;10527;52.124;5.196;2024-03-08T05:51:45;101451.00;;;13.20
20733;BMP180;10527;52.124;5.196;2024-03-08T05:54:14;101440.00;;;13.20
20733;BMP180;10527;52.124;5.196;2024-03-08T05:56:46;101440.00;;;13.20
20733;BMP180;10527;52.124;5.196;2024-03-08T05:59:15;101445.00;;;13.20
20733;BMP180;10527;52.124;5.196;2024-03-08T06:01:43;101449.00;;;13.20
20733;BMP180;10527;52.124;5.196;2024-03-08T06:04:10;101440.00;;;13.10
20733;BMP180;10527;52.124;5.196;2024-03-08T06:06:39;101436.00;;;13.10
20733;BMP180;10527;52.124;5.196;2024-03-08T06:09:08;101437.00;;;13.10
20733;BMP180;10527;52.124;5.196;2024-03-08T06:11:52;101427.00;;;13.10
20733;BMP180;10527;52.124;5.196;2024-03-08T06:14:22;101432.00;;;13.10
20733;BMP180;10527;52.124;5.196;2024-03-08T06:16:50;101423.00;;;13.10
20733;BMP180;10527;52.124;5.196;2024-03-08T06:19:18;101425.00;;;13.10
20733;BMP180;10527;52.124;5.196;2024-03-08T06:21:45;101428.00;;;13.10
20733;BMP180;10527;52.124;5.196;2024-03-08T06:24:13;101434.00;;;13.10
20733;BMP180;10527;52.124;5.196;2024-03-08T06:26:43;101441.00;;;13.10
20733;BMP180;10527;52.124;5.196;2024-03-08T06:29:10;101435.00;;;13.10
20733;BMP180;10527;52.124;5.196;2024-03-08T06:31:37;101431.00;;;13.10
20733;BMP180;10527;52.124;5.196;2024-03-08T06:34:07;101427.00;;;13.10
20733;BMP180;10527;52.124;5.196;2024-03-08T06:36:38;101424.00;;;13.00
20733;BMP180;10527;52.124;5.196;2024-03-08T06:39:06;101423.00;;;13.10
20733;BMP180;10527;52.124;5.196;2024-03-08T06:41:37;101425.00;;;13.10
20733;BMP180;10527;52.124;5.196;2024-03-08T06:44:05;101423.00;;;13.00
20733;BMP180;10527;52.124;5.196;2024-03-08T06:46:35;101427.00;;;13.00
20733;BMP180;10527;52.124;5.196;2024-03-08T06:49:03;101420.00;;;13.10
20733;BMP180;10527;52.124;5.196;2024-03-08T06:51:31;101416.00;;;13.00
20733;BMP180;10527;52.124;5.196;2024-03-08T06:53:59;101418.00;;;13.00
20733;BMP180;10527;52.124;5.196;2024-03-08T06:56:26;101416.00;;;13.10
20733;BMP180;10527;52.124;5.196;2024-03-08T06:58:54;101422.00;;;13.10
20733;BMP180;10527;52.124;5.196;2024-03-08T07:01:22;101422.00;;;13.10
20733;BMP180;10527;52.124;5.196;2024-03-08T07:03:50;101421.00;;;13.10
20733;BMP180;10527;52.124;5.196;2024-03-08T07:06:20;101419.00;;;13.10
20733;BMP180;10527;52.124;5.196;2024-03-08T07:08:48;101413.00;;;13.10
20733;BMP180;10527;52.124;5.196;2024-03-08T07:11:16;101417.00;;;13.10
20733;BMP180;10527;52.124;5.196;2024-03-08T07:13:46;101406.00;;;13.10
20733;BMP180;10527;52.124;5.196;2024-03-08T07:16:13;101402.00;;;13.20
20733;BMP180;10527;52.124;5.196;2024-03-08T07:18:41;101407.00;;;13.20
20733;BMP180;10527;52.124;5.196;2024-03-08T07:21:10;101398.00;;;13.20
20733;BMP180;10527;52.124;5.196;2024-03-08T07:23:38;101397.00;;;13.20
20733;BMP180;10527;52.124;5.196;2024-03-08T07:26:29;101406.00;;;13.20
20733;BMP180;10527;52.124;5.196;2024-03-08T07:28:57;101400.00;;;13.20
20733;BMP180;10527;52.124;5.196;2024-03-08T07:31:26;101399.00;;;13.30
20733;BMP180;10527;52.124;5.196;2024-03-08T07:33:53;101399.00;;;13.30
20733;BMP180;10527;52.124;5.196;2024-03-08T07:36:21;101395.00;;;13.30
20733;BMP180;10527;52.124;5.196;2024-03-08T07:38:49;101398.00;;;13.30
20733;BMP180;10527;52.124;5.196;2024-03-08T07:41:17;101387.00;;;13.30
20733;BMP180;10527;52.124;5.196;2024-03-08T07:43:45;101375.00;;;13.30
20733;BMP180;10527;52.124;5.196;2024-03-08T07:46:12;101391.00;;;13.40
20733;BMP180;10527;52.124;5.196;2024-03-08T07:48:40;101381.00;;;13.40
20733;BMP180;10527;52.124;5.196;2024-03-08T07:51:08;101380.00;;;13.40
20733;BMP180;10527;52.124;5.196;2024-03-08T07:53:37;101376.00;;;13.40
20733;BMP180;10527;52.124;5.196;2024-03-08T07:56:05;101379.00;;;13.40
20733;BMP180;10527;52.124;5.196;2024-03-08T07:58:33;101381.00;;;13.50
20733;BMP180;10527;52.124;5.196;2024-03-08T08:01:02;101369.00;;;13.50
20733;BMP180;10527;52.124;5.196;2024-03-08T08:03:29;101366.00;;;13.50
20733;BMP180;10527;52.124;5.196;2024-03-08T08:05:57;101362.00;;;13.60
20733;BMP180;10527;52.124;5.196;2024-03-08T08:08:24;101363.00;;;13.60
20733;BMP180;10527;52.124;5.196;2024-03-08T08:10:53;101370.00;;;13.70
20733;BMP180;10527;52.124;5.196;2024-03-08T08:13:22;101367.00;;;13.70
20733;BMP180;10527;52.124;5.196;2024-03-08T08:15:51;101362.00;;;13.80
20733;BMP180;10527;52.124;5.196;2024-03-08T08:18:18;101349.00;;;13.80
20733;BMP180;10527;52.124;5.196;2024-03-08T08:20:48;101348.00;;;13.90
20733;BMP180;10527;52.124;5.196;2024-03-08T08:23:17;101356.00;;;13.90
20733;BMP180;10527;52.124;5.196;2024-03-08T08:25:44;101342.00;;;13.90
20733;BMP180;10527;52.124;5.196;2024-03-08T08:28:12;101347.00;;;13.90
20733;BMP180;10527;52.124;5.196;2024-03-08T08:30:40;101342.00;;;14.00
20733;BMP180;10527;52.124;5.196;2024-03-08T08:33:07;101340.00;;;14.10
20733;BMP180;10527;52.124;5.196;2024-03-08T08:35:36;101329.00;;;14.10
20733;BMP180;10527;52.124;5.196;2024-03-08T08:38:05;101333.00;;;14.20
20733;BMP180;10527;52.124;5.196;2024-03-08T08:40:33;101326.00;;;14.20
20733;BMP180;10527;52.124;5.196;2024-03-08T08:43:00;101325.00;;;14.20
20733;BMP180;10527;52.124;5.196;2024-03-08T08:45:28;101334.00;;;14.30
20733;BMP180;10527;52.124;5.196;2024-03-08T08:47:55;101325.00;;;14.30
20733;BMP180;10527;52.124;5.196;2024-03-08T08:50:23;101327.00;;;14.40
20733;BMP180;10527;52.124;5.196;2024-03-08T08:52:51;101322.00;;;14.60
20733;BMP180;10527;52.124;5.196;2024-03-08T08:55:21;101313.00;;;14.80
20733;BMP180;10527;52.124;5.196;2024-03-08T08:57:53;101312.00;;;15.20
20733;BMP180;10527;52.124;5.196;2024-03-08T09:00:21;101298.00;;;15.60
20733;BMP180;10527;52.124;5.196;2024-03-08T09:02:51;101308.00;;;16.10
20733;BMP180;10527;52.124;5.196;2024-03-08T09:05:18;101303.00;;;16.50
20733;BMP180;10527;52.124;5.196;2024-03-08T09:07:46;101301.00;;;17.00
20733;BMP180;10527;52.124;5.196;2024-03-08T09:10:14;101308.00;;;17.40
20733;BMP180;10527;52.124;5.196;2024-03-08T09:12:44;101301.00;;;17.80
20733;BMP180;10527;52.124;5.196;2024-03-08T09:15:12;101299.00;;;18.20
20733;BMP180;10527;52.124;5.196;2024-03-08T09:17:40;101290.00;;;18.60
20733;BMP180;10527;52.124;5.196;2024-03-08T09:20:10;101287.00;;;19.00
20733;BMP180;10527;52.124;5.196;2024-03-08T09:22:45;101285.00;;;19.30
20733;BMP180;10527;52.124;5.196;2024-03-08T09:25:13;101281.00;;;19.60
20733;BMP180;10527;52.124;5.196;2024-03-08T09:27:42;101279.00;;;19.80
20733;BMP180;10527;52.124;5.196;2024-03-08T09:30:10;101279.00;;;20.10
20733;BMP180;10527;52.124;5.196;2024-03-08T09:32:40;101285.00;;;20.30
20733;BMP180;10527;52.124;5.196;2024-03-08T09:35:08;101277.00;;;20.50
20733;BMP180;10527;52.124;5.196;2024-03-08T09:37:36;101267.00;;;20.60
20733;BMP180;10527;52.124;5.196;2024-03-08T09:40:05;101274.00;;;20.70
20733;BMP180;10527;52.124;5.196;2024-03-08T09:42:37;101257.00;;;20.80
20733;BMP180;10527;52.124;5.196;2024-03-08T09:45:12;101250.00;;;20.90
20733;BMP180;10527;52.124;5.196;2024-03-08T09:47:44;101255.00;;;21.00
20733;BMP180;10527;52.124;5.196;2024-03-08T09:50:12;101249.00;;;21.10
20733;BMP180;10527;52.124;5.196;2024-03-08T09:52:41;101249.00;;;21.10
20733;BMP180;10527;52.124;5.196;2024-03-08T09:55:11;101237.00;;;21.20
20733;BMP180;10527;52.124;5.196;2024-03-08T09:57:40;101242.00;;;21.20
20733;BMP180;10527;52.124;5.196;2024-03-08T10:00:07;101229.00;;;21.30
20733;BMP180;10527;52.124;5.196;2024-03-08T10:02:46;101222.00;;;21.30
20733;BMP180;10527;52.124;5.196;2024-03-08T10:05:14;101220.00;;;21.30
20733;BMP180;10527;52.124;5.196;2024-03-08T10:07:41;101225.00;;;21.30
20733;BMP180;10527;52.124;5.196;2024-03-08T10:10:09;101222.00;;;21.40
20733;BMP180;10527;52.124;5.196;2024-03-08T10:12:39;101209.00;;;21.40
20733;BMP180;10527;52.124;5.196;2024-03-08T10:15:08;101212.00;;;21.40
20733;BMP180;10527;52.124;5.196;2024-03-08T10:17:36;101205.00;;;21.30
20733;BMP180;10527;52.124;5.196;2024-03-08T10:20:03;101206.00;;;21.30
20733;BMP180;10527;52.124;5.196;2024-03-08T10:22:42;101193.00;;;21.30
20733;BMP180;10527;52.124;5.196;2024-03-08T10:25:24;101189.00;;;21.20
20733;BMP180;10527;52.124;5.196;2024-03-08T10:27:52;101188.00;;;21.20
20733;BMP180;10527;52.124;5.196;2024-03-08T10:30:20;101185.00;;;21.10
20733;BMP180;10527;52.124;5.196;2024-03-08T10:32:49;101180.00;;;21.10
20733;BMP180;10527;52.124;5.196;2024-03-08T10:35:17;101169.00;;;21.00
20733;BMP180;10527;52.124;5.196;2024-03-08T10:37:49;101162.00;;;21.00
20733;BMP180;10527;52.124;5.196;2024-03-08T10:40:18;101160.00;;;20.90
20733;BMP180;10527;52.124;5.196;2024-03-08T10:45:40;101137.00;;;20.80
20733;BMP180;10527;52.124;5.196;2024-03-08T10:48:32;101141.00;;;20.70
20733;BMP180;10527;52.124;5.196;2024-03-08T10:51:06;101142.00;;;20.60
20733;BMP180;10527;52.124;5.196;2024-03-08T10:53:35;101127.00;;;20.60
20733;BMP180;10527;52.124;5.196;2024-03-08T10:56:04;101126.00;;;20.50
20733;BMP180;10527;52.124;5.196;2024-03-08T10:58:32;101116.00;;;20.50
20733;BMP180;10527;52.124;5.196;2024-03-08T11:01:02;101115.00;;;20.50
20733;BMP180;10527;52.124;5.196;2024-03-08T11:03:45;101121.00;;;20.40
20733;BMP180;10527;52.124;5.196;2024-03-08T11:14:49;101092.00;;;20.20
20733;BMP180;10527;52.124;5.196;2024-03-08T11:17:20;101086.00;;;20.20
20733;BMP180;10527;52.124;5.196;2024-03-08T11:19:50;101089.00;;;20.20
20733;BMP180;10527;52.124;5.196;2024-03-08T11:22:27;101080.00;;;20.20
20733;BMP180;10527;52.124;5.196;2024-03-08T11:25:02;101067.00;;;20.20
20733;BMP180;10527;52.124;5.196;2024-03-08T11:27:32;101061.00;;;20.10
20733;BMP180;10527;52.124;5.196;2024-03-08T11:30:05;101049.00;;;20.10
20733;BMP180;10527;52.124;5.196;2024-03-08T11:32:47;101046.00;;;20.10
20733;BMP180;10527;52.124;5.196;2024-03-08T11:35:22;101048.00;;;20.10
20733;BMP180;10527;52.124;5.196;2024-03-08T11:37:50;101032.00;;;20.10
20733;BMP180;10527;52.124;5.196;2024-03-08T11:40:18;101033.00;;;20.10
20733;BMP180;10527;52.124;5.196;2024-03-08T11:42:48;101027.00;;;20.10
20733;BMP180;10527;52.124;5.196;2024-03-08T11:45:16;101016.00;;;20.20
20733;BMP180;10527;52.124;5.196;2024-03-08T11:47:45;101017.00;;;20.20
20733;BMP180;10527;52.124;5.196;2024-03-08T11:50:14;101013.00;;;20.20
20733;BMP180;10527;52.124;5.196;2024-03-08T11:52:43;101006.00;;;20.20
20733;BMP180;10527;52.124;5.196;2024-03-08T11:55:11;101005.00;;;20.30
20733;BMP180;10527;52.124;5.196;2024-03-08T11:57:40;100992.00;;;20.30
20733;BMP180;10527;52.124;5.196;2024-03-08T12:00:28;100986.00;;;20.40
20733;BMP180;10527;52.124;5.196;2024-03-08T12:03:09;100995.00;;;20.50
20733;BMP180;10527;52.124;5.196;2024-03-08T12:05:37;100985.00;;;20.50
20733;BMP180;10527;52.124;5.196;2024-03-08T12:08:05;100980.00;;;20.60
20733;BMP180;10527;52.124;5.196;2024-03-08T12:10:40;100970.00;;;20.70
20733;BMP180;10527;52.124;5.196;2024-03-08T12:13:07;100983.00;;;20.70
20733;BMP180;10527;52.124;5.196;2024-03-08T12:15:41;100967.00;;;20.80
20733;BMP180;10527;52.124;5.196;2024-03-08T12:18:08;100970.00;;;20.80
20733;BMP180;10527;52.124;5.196;2024-03-08T12:20:38;100970.00;;;20.90
20733;BMP180;10527;52.124;5.196;2024-03-08T12:23:06;100952.00;;;20.90
20733;BMP180;10527;52.124;5.196;2024-03-08T12:25:40;100962.00;;;21.00
20733;BMP180;10527;52.124;5.196;2024-03-08T12:28:12;100964.00;;;21.00
20733;BMP180;10527;52.124;5.196;2024-03-08T12:30:49;100946.00;;;21.00
20733;BMP180;10527;52.124;5.196;2024-03-08T12:33:20;100954.00;;;21.10
20733;BMP180;10527;52.124;5.196;2024-03-08T12:35:54;100944.00;;;21.10
20733;BMP180;10527;52.124;5.196;2024-03-08T12:38:23;100953.00;;;21.10
20733;BMP180;10527;52.124;5.196;2024-03-08T12:41:01;100938.00;;;21.10
20733;BMP180;10527;52.124;5.196;2024-03-08T12:43:29;100944.00;;;21.10
20733;BMP180;10527;52.124;5.196;2024-03-08T12:46:01;100952.00;;;21.10
20733;BMP180;10527;52.124;5.196;2024-03-08T12:48:35;100935.00;;;21.10
20733;BMP180;10527;52.124;5.196;2024-03-08T12:51:04;100937.00;;;21.10
20733;BMP180;10527;52.124;5.196;2024-03-08T12:53:33;100927.00;;;21.20
20733;BMP180;10527;52.124;5.196;2024-03-08T12:56:01;100928.00;;;21.30
20733;BMP180;10527;52.124;5.196;2024-03-08T12:58:28;100921.00;;;21.40
20733;BMP180;10527;52.124;5.196;2024-03-08T13:00:56;100909.00;;;21.40
20733;BMP180;10527;52.124;5.196;2024-03-08T13:03:24;100919.00;;;21.40
20733;BMP180;10527;52.124;5.196;2024-03-08T13:05:51;100907.00;;;21.40
20733;BMP180;10527;52.124;5.196;2024-03-08T13:08:18;100913.00;;;21.50
20733;BMP180;10527;52.124;5.196;2024-03-08T13:10:46;100912.00;;;21.50
20733;BMP180;10527;52.124;5.196;2024-03-08T13:13:13;100907.00;;;21.60
20733;BMP180;10527;52.124;5.196;2024-03-08T13:15:45;100904.00;;;21.60
20733;BMP180;10527;52.124;5.196;2024-03-08T13:18:12;100905.00;;;21.60
20733;BMP180;10527;52.124;5.196;2024-03-08T13:20:40;100908.00;;;21.70
20733;BMP180;10527;52.124;5.196;2024-03-08T13:23:14;100903.00;;;21.70
20733;BMP180;10527;52.124;5.196;2024-03-08T13:25:43;100913.00;;;21.70
20733;BMP180;10527;52.124;5.196;2024-03-08T13:28:10;100900.00;;;21.70
20733;BMP180;10527;52.124;5.196;2024-03-08T13:30:38;100890.00;;;21.70
20733;BMP180;10527;52.124;5.196;2024-03-08T13:33:06;100887.00;;;21.70
20733;BMP180;10527;52.124;5.196;2024-03-08T13:35:34;100884.00;;;21.70
20733;BMP180;10527;52.124;5.196;2024-03-08T13:38:02;100883.00;;;21.70
20733;BMP180;10527;52.124;5.196;2024-03-08T13:40:32;100880.00;;;21.70
20733;BMP180;10527;52.124;5.196;2024-03-08T13:42:59;100878.00;;;21.80
20733;BMP180;10527;52.124;5.196;2024-03-08T13:45:28;100865.00;;;21.80
20733;BMP180;10527;52.124;5.196;2024-03-08T13:47:56;100875.00;;;21.80
20733;BMP180;10527;52.124;5.196;2024-03-08T13:50:24;100873.00;;;21.80
20733;BMP180;10527;52.124;5.196;2024-03-08T13:52:53;100861.00;;;21.90
20733;BMP180;10527;52.124;5.196;2024-03-08T13:55:23;100861.00;;;21.90
20733;BMP180;10527;52.124;5.196;2024-03-08T13:57:53;100861.00;;;21.90
20733;BMP180;10527;52.124;5.196;2024-03-08T14:00:21;100855.00;;;22.00
20733;BMP180;10527;52.124;5.196;2024-03-08T14:02:50;100849.00;;;22.00
20733;BMP180;10527;52.124;5.196;2024-03-08T14:05:17;100847.00;;;22.00
20733;BMP180;10527;52.124;5.196;2024-03-08T14:07:47;100845.00;;;22.10
20733;BMP180;10527;52.124;5.196;2024-03-08T14:10:17;100832.00;;;22.10
20733;BMP180;10527;52.124;5.196;2024-03-08T14:12:48;100828.00;;;22.10
20733;BMP180;10527;52.124;5.196;2024-03-08T14:15:18;100831.00;;;22.20
20733;BMP180;10527;52.124;5.196;2024-03-08T14:17:53;100823.00;;;22.20